Airfield :







YOU CAN JOIN US ON...

 
LOGIN :

Register | Disclaimer

   EN    FR    IT 

 









Legend :    VFR   Marginal VFR   IFR   Intensive IFR   Very Intensive IFR
Visi :
Ceiling :
>= 8 km
>= 3000ft
5 to 8 km
1000 to 3000 ft
1500m to 5 km
500 to 1000 ft
800 to 1500m
200 to 500 ft
< 800m
< 200 ft
Symbols :   Thunderstorms  Fog  Heavy snow  Heavy precipitations  Wind > 20 kt






- Airport Elevation : 1166 ft


KMPV - Edward F Knapp State

CURRENT METAR :
  • 180451Z AUTO 00000KT 10SM CLR M16/M20 A3044 RMK AO2 SLP334 T11611200 400061167

EXPIRED METARs :
  • 180351Z AUTO 00000KT 10SM CLR M16/M19 A3044 RMK AO2 SLP334 T11561194
  • 180251Z AUTO 19003KT 10SM CLR M14/M19 A3042 RMK AO2 SLP326 T11391189 51010

TAF KMPV
Valid from the 18 at 06:00 until the 19 at 06:00 UTC


180533Z 1806/1906 00000KT P6SM SCT180
FM181300 17005KT P6SM OVC050
FM181500 15016KT 1SM -SN BR OVC035 WS020/17040KT
FM182100 17020G31KT 2SM -SN BR OVC020 WS020/17045KT
FM190000 18012KT 3SM -DZ OVC012 WS020/19035KT



MET'MAP, your aeronautical weather chart ! - Copyright ORBIFLY December 2007 - Disclaimer

ORBIFLY MET'MAP TEAM :

Programming & Development : Alexandra Zaïnal
Concept & original design : Baudouin d'Aumeries
Assistance for programming : Marc-Olivier Méhu
Technical & hardware support : Manuel Goepfert

Contact : metmap@orbifly.com




SOURCES & CREDITS :

   NOAA